sensor_id;sensor_type;location;lat;lon;timestamp;P1;durP1;ratioP1;P2;durP2;ratioP2
16393;SDS011;8306;51.128;4.476;2023-05-21T00:00:08;2.30;;;2.10;;
16393;SDS011;8306;51.128;4.476;2023-05-21T00:02:35;2.53;;;2.17;;
16393;SDS011;8306;51.128;4.476;2023-05-21T00:05:02;2.57;;;2.30;;
16393;SDS011;8306;51.128;4.476;2023-05-21T00:07:28;2.83;;;2.43;;
16393;SDS011;8306;51.128;4.476;2023-05-21T00:09:55;2.70;;;2.23;;
16393;SDS011;8306;51.128;4.476;2023-05-21T00:12:21;2.40;;;2.20;;
16393;SDS011;8306;51.128;4.476;2023-05-21T00:14:48;2.27;;;2.13;;
16393;SDS011;8306;51.128;4.476;2023-05-21T00:17:14;2.77;;;2.33;;
16393;SDS011;8306;51.128;4.476;2023-05-21T00:19:41;2.63;;;2.33;;
16393;SDS011;8306;51.128;4.476;2023-05-21T00:22:07;3.57;;;2.10;;
16393;SDS011;8306;51.128;4.476;2023-05-21T00:24:34;2.40;;;2.20;;
16393;SDS011;8306;51.128;4.476;2023-05-21T00:27:00;2.23;;;2.03;;
16393;SDS011;8306;51.128;4.476;2023-05-21T00:29:27;3.47;;;2.30;;
16393;SDS011;8306;51.128;4.476;2023-05-21T00:31:53;2.50;;;2.20;;
16393;SDS011;8306;51.128;4.476;2023-05-21T00:34:20;2.73;;;2.30;;
16393;SDS011;8306;51.128;4.476;2023-05-21T00:36:46;2.60;;;2.40;;
16393;SDS011;8306;51.128;4.476;2023-05-21T00:39:13;2.70;;;2.50;;
16393;SDS011;8306;51.128;4.476;2023-05-21T00:41:39;2.47;;;2.33;;
16393;SDS011;8306;51.128;4.476;2023-05-21T00:44:06;2.83;;;2.37;;
16393;SDS011;8306;51.128;4.476;2023-05-21T00:46:32;2.40;;;2.30;;
16393;SDS011;8306;51.128;4.476;2023-05-21T00:48:58;2.70;;;2.03;;
16393;SDS011;8306;51.128;4.476;2023-05-21T00:51:25;2.67;;;2.40;;
16393;SDS011;8306;51.128;4.476;2023-05-21T00:53:51;2.87;;;2.67;;
16393;SDS011;8306;51.128;4.476;2023-05-21T00:56:21;2.60;;;2.40;;
16393;SDS011;8306;51.128;4.476;2023-05-21T00:58:44;2.80;;;2.63;;
16393;SDS011;8306;51.128;4.476;2023-05-21T01:01:11;2.60;;;2.40;;
16393;SDS011;8306;51.128;4.476;2023-05-21T01:03:37;2.50;;;2.37;;
16393;SDS011;8306;51.128;4.476;2023-05-21T01:06:04;2.67;;;2.47;;
16393;SDS011;8306;51.128;4.476;2023-05-21T01:08:31;3.20;;;2.90;;
16393;SDS011;8306;51.128;4.476;2023-05-21T01:10:57;2.50;;;2.30;;
16393;SDS011;8306;51.128;4.476;2023-05-21T01:13:23;4.50;;;2.97;;
16393;SDS011;8306;51.128;4.476;2023-05-21T01:15:50;3.20;;;2.90;;
16393;SDS011;8306;51.128;4.476;2023-05-21T01:18:16;2.80;;;2.60;;
16393;SDS011;8306;51.128;4.476;2023-05-21T01:20:43;2.70;;;2.50;;
16393;SDS011;8306;51.128;4.476;2023-05-21T01:23:09;3.00;;;2.80;;
16393;SDS011;8306;51.128;4.476;2023-05-21T01:25:36;3.03;;;2.60;;
16393;SDS011;8306;51.128;4.476;2023-05-21T01:28:02;3.10;;;2.60;;
16393;SDS011;8306;51.128;4.476;2023-05-21T01:30:29;3.03;;;2.70;;
16393;SDS011;8306;51.128;4.476;2023-05-21T01:33:02;3.00;;;2.80;;
16393;SDS011;8306;51.128;4.476;2023-05-21T01:35:34;2.83;;;2.63;;
16393;SDS011;8306;51.128;4.476;2023-05-21T01:38:08;2.97;;;2.77;;
16393;SDS011;8306;51.128;4.476;2023-05-21T01:40:44;3.23;;;2.93;;
16393;SDS011;8306;51.128;4.476;2023-05-21T01:43:10;3.20;;;3.00;;
16393;SDS011;8306;51.128;4.476;2023-05-21T01:45:38;2.97;;;2.77;;
16393;SDS011;8306;51.128;4.476;2023-05-21T01:48:03;3.97;;;2.67;;
16393;SDS011;8306;51.128;4.476;2023-05-21T01:50:30;3.03;;;2.83;;
16393;SDS011;8306;51.128;4.476;2023-05-21T01:52:56;3.03;;;2.60;;
16393;SDS011;8306;51.128;4.476;2023-05-21T01:55:23;3.17;;;2.97;;
16393;SDS011;8306;51.128;4.476;2023-05-21T01:57:50;3.30;;;3.00;;
16393;SDS011;8306;51.128;4.476;2023-05-21T02:00:21;3.83;;;2.93;;
16393;SDS011;8306;51.128;4.476;2023-05-21T02:02:45;3.10;;;2.90;;
16393;SDS011;8306;51.128;4.476;2023-05-21T02:05:11;3.30;;;3.00;;
16393;SDS011;8306;51.128;4.476;2023-05-21T02:07:38;3.10;;;2.90;;
16393;SDS011;8306;51.128;4.476;2023-05-21T02:10:05;3.13;;;2.83;;
16393;SDS011;8306;51.128;4.476;2023-05-21T02:12:31;3.00;;;2.80;;
16393;SDS011;8306;51.128;4.476;2023-05-21T02:14:58;3.43;;;3.13;;
16393;SDS011;8306;51.128;4.476;2023-05-21T02:17:24;2.90;;;2.70;;
16393;SDS011;8306;51.128;4.476;2023-05-21T02:19:51;3.30;;;2.90;;
16393;SDS011;8306;51.128;4.476;2023-05-21T02:22:17;3.73;;;3.10;;
16393;SDS011;8306;51.128;4.476;2023-05-21T02:24:44;4.07;;;3.20;;
16393;SDS011;8306;51.128;4.476;2023-05-21T02:27:10;3.30;;;3.10;;
16393;SDS011;8306;51.128;4.476;2023-05-21T02:29:37;3.27;;;3.07;;
16393;SDS011;8306;51.128;4.476;2023-05-21T02:32:03;3.00;;;2.80;;
16393;SDS011;8306;51.128;4.476;2023-05-21T02:34:30;3.80;;;3.50;;
16393;SDS011;8306;51.128;4.476;2023-05-21T02:36:56;3.63;;;3.33;;
16393;SDS011;8306;51.128;4.476;2023-05-21T02:39:23;3.60;;;3.30;;
16393;SDS011;8306;51.128;4.476;2023-05-21T02:41:49;3.17;;;2.93;;
16393;SDS011;8306;51.128;4.476;2023-05-21T02:44:16;3.30;;;3.10;;
16393;SDS011;8306;51.128;4.476;2023-05-21T02:46:42;4.17;;;3.27;;
16393;SDS011;8306;51.128;4.476;2023-05-21T02:49:09;3.63;;;3.37;;
16393;SDS011;8306;51.128;4.476;2023-05-21T02:51:35;3.47;;;3.27;;
16393;SDS011;8306;51.128;4.476;2023-05-21T02:54:02;3.57;;;3.27;;
16393;SDS011;8306;51.128;4.476;2023-05-21T02:56:29;3.27;;;3.07;;
16393;SDS011;8306;51.128;4.476;2023-05-21T02:58:55;3.70;;;3.40;;
16393;SDS011;8306;51.128;4.476;2023-05-21T03:01:21;3.37;;;3.07;;
16393;SDS011;8306;51.128;4.476;2023-05-21T03:03:48;3.40;;;3.17;;
16393;SDS011;8306;51.128;4.476;2023-05-21T03:06:14;3.40;;;3.13;;
16393;SDS011;8306;51.128;4.476;2023-05-21T03:08:41;4.20;;;3.37;;
16393;SDS011;8306;51.128;4.476;2023-05-21T03:11:07;3.03;;;2.87;;
16393;SDS011;8306;51.128;4.476;2023-05-21T03:13:34;3.67;;;3.43;;
16393;SDS011;8306;51.128;4.476;2023-05-21T03:16:00;3.50;;;3.20;;
16393;SDS011;8306;51.128;4.476;2023-05-21T03:18:27;3.87;;;3.57;;
16393;SDS011;8306;51.128;4.476;2023-05-21T03:20:53;4.10;;;3.80;;
16393;SDS011;8306;51.128;4.476;2023-05-21T03:23:20;4.47;;;3.57;;
16393;SDS011;8306;51.128;4.476;2023-05-21T03:25:46;3.80;;;3.57;;
16393;SDS011;8306;51.128;4.476;2023-05-21T03:28:13;3.97;;;3.67;;
16393;SDS011;8306;51.128;4.476;2023-05-21T03:30:39;3.73;;;3.40;;
16393;SDS011;8306;51.128;4.476;2023-05-21T03:33:06;3.77;;;3.47;;
16393;SDS011;8306;51.128;4.476;2023-05-21T03:35:32;4.20;;;3.80;;
16393;SDS011;8306;51.128;4.476;2023-05-21T03:37:59;4.63;;;4.23;;
16393;SDS011;8306;51.128;4.476;2023-05-21T03:40:25;3.80;;;3.60;;
16393;SDS011;8306;51.128;4.476;2023-05-21T03:42:52;4.00;;;3.80;;
16393;SDS011;8306;51.128;4.476;2023-05-21T03:45:18;3.80;;;3.50;;
16393;SDS011;8306;51.128;4.476;2023-05-21T03:47:45;3.83;;;3.53;;
16393;SDS011;8306;51.128;4.476;2023-05-21T03:50:11;4.10;;;3.80;;
16393;SDS011;8306;51.128;4.476;2023-05-21T03:52:38;3.93;;;3.73;;
16393;SDS011;8306;51.128;4.476;2023-05-21T03:55:04;4.03;;;3.73;;
16393;SDS011;8306;51.128;4.476;2023-05-21T03:57:31;4.10;;;3.80;;
16393;SDS011;8306;51.128;4.476;2023-05-21T03:59:57;3.70;;;3.50;;
16393;SDS011;8306;51.128;4.476;2023-05-21T04:02:26;4.17;;;3.87;;
16393;SDS011;8306;51.128;4.476;2023-05-21T04:04:53;4.37;;;4.07;;
16393;SDS011;8306;51.128;4.476;2023-05-21T04:07:19;5.53;;;4.13;;
16393;SDS011;8306;51.128;4.476;2023-05-21T04:09:46;4.23;;;3.87;;
16393;SDS011;8306;51.128;4.476;2023-05-21T04:12:13;3.90;;;3.60;;
16393;SDS011;8306;51.128;4.476;2023-05-21T04:14:39;4.00;;;3.70;;
16393;SDS011;8306;51.128;4.476;2023-05-21T04:17:06;3.77;;;3.50;;
16393;SDS011;8306;51.128;4.476;2023-05-21T04:19:32;3.97;;;3.77;;
16393;SDS011;8306;51.128;4.476;2023-05-21T04:21:59;4.03;;;3.67;;
16393;SDS011;8306;51.128;4.476;2023-05-21T04:24:25;3.63;;;3.43;;
16393;SDS011;8306;51.128;4.476;2023-05-21T04:26:52;3.90;;;3.60;;
16393;SDS011;8306;51.128;4.476;2023-05-21T04:29:18;4.17;;;3.87;;
16393;SDS011;8306;51.128;4.476;2023-05-21T04:31:44;4.10;;;3.80;;
16393;SDS011;8306;51.128;4.476;2023-05-21T04:34:11;4.20;;;4.00;;
16393;SDS011;8306;51.128;4.476;2023-05-21T04:36:37;3.53;;;3.23;;
16393;SDS011;8306;51.128;4.476;2023-05-21T04:39:04;3.83;;;3.63;;
16393;SDS011;8306;51.128;4.476;2023-05-21T04:41:30;4.20;;;3.70;;
16393;SDS011;8306;51.128;4.476;2023-05-21T04:43:57;3.60;;;3.40;;
16393;SDS011;8306;51.128;4.476;2023-05-21T04:46:23;3.87;;;3.67;;
16393;SDS011;8306;51.128;4.476;2023-05-21T04:48:53;4.23;;;3.83;;
16393;SDS011;8306;51.128;4.476;2023-05-21T04:51:20;4.10;;;3.80;;
16393;SDS011;8306;51.128;4.476;2023-05-21T04:53:51;3.37;;;3.17;;
16393;SDS011;8306;51.128;4.476;2023-05-21T04:56:17;3.83;;;3.60;;
16393;SDS011;8306;51.128;4.476;2023-05-21T04:58:44;3.50;;;3.30;;
16393;SDS011;8306;51.128;4.476;2023-05-21T05:01:10;3.87;;;3.57;;
16393;SDS011;8306;51.128;4.476;2023-05-21T05:03:37;3.93;;;3.43;;
16393;SDS011;8306;51.128;4.476;2023-05-21T05:06:03;4.20;;;3.97;;
16393;SDS011;8306;51.128;4.476;2023-05-21T05:08:30;4.20;;;3.90;;
16393;SDS011;8306;51.128;4.476;2023-05-21T05:10:56;3.77;;;3.50;;
16393;SDS011;8306;51.128;4.476;2023-05-21T05:13:23;3.33;;;3.13;;
16393;SDS011;8306;51.128;4.476;2023-05-21T05:15:49;3.80;;;3.47;;
16393;SDS011;8306;51.128;4.476;2023-05-21T05:18:16;3.40;;;3.10;;
16393;SDS011;8306;51.128;4.476;2023-05-21T05:20:42;3.43;;;3.23;;
16393;SDS011;8306;51.128;4.476;2023-05-21T05:23:09;3.97;;;3.50;;
16393;SDS011;8306;51.128;4.476;2023-05-21T05:25:35;3.80;;;3.50;;
16393;SDS011;8306;51.128;4.476;2023-05-21T05:28:02;3.63;;;3.37;;
16393;SDS011;8306;51.128;4.476;2023-05-21T05:30:28;7.07;;;3.63;;
16393;SDS011;8306;51.128;4.476;2023-05-21T05:32:55;3.50;;;3.30;;
16393;SDS011;8306;51.128;4.476;2023-05-21T05:35:21;4.30;;;3.90;;
16393;SDS011;8306;51.128;4.476;2023-05-21T05:37:48;4.00;;;3.70;;
16393;SDS011;8306;51.128;4.476;2023-05-21T05:40:14;3.80;;;3.60;;
16393;SDS011;8306;51.128;4.476;2023-05-21T05:42:41;3.83;;;3.63;;
16393;SDS011;8306;51.128;4.476;2023-05-21T05:45:07;3.77;;;3.47;;
16393;SDS011;8306;51.128;4.476;2023-05-21T05:47:34;3.60;;;3.40;;
16393;SDS011;8306;51.128;4.476;2023-05-21T05:50:00;3.37;;;3.17;;
16393;SDS011;8306;51.128;4.476;2023-05-21T05:52:27;3.47;;;3.27;;
16393;SDS011;8306;51.128;4.476;2023-05-21T05:54:53;3.80;;;3.60;;
16393;SDS011;8306;51.128;4.476;2023-05-21T05:57:20;3.73;;;3.43;;
16393;SDS011;8306;51.128;4.476;2023-05-21T05:59:46;4.13;;;3.83;;
16393;SDS011;8306;51.128;4.476;2023-05-21T06:02:13;3.67;;;3.37;;
16393;SDS011;8306;51.128;4.476;2023-05-21T06:04:39;3.63;;;3.30;;
16393;SDS011;8306;51.128;4.476;2023-05-21T06:07:06;3.90;;;3.60;;
16393;SDS011;8306;51.128;4.476;2023-05-21T06:09:32;3.77;;;3.53;;
16393;SDS011;8306;51.128;4.476;2023-05-21T06:11:59;4.33;;;3.60;;
16393;SDS011;8306;51.128;4.476;2023-05-21T06:14:25;3.67;;;3.37;;
16393;SDS011;8306;51.128;4.476;2023-05-21T06:16:52;4.00;;;3.70;;
16393;SDS011;8306;51.128;4.476;2023-05-21T06:19:18;4.07;;;3.63;;
16393;SDS011;8306;51.128;4.476;2023-05-21T06:21:47;3.40;;;3.20;;
16393;SDS011;8306;51.128;4.476;2023-05-21T06:24:11;3.97;;;3.67;;
16393;SDS011;8306;51.128;4.476;2023-05-21T06:26:37;4.23;;;3.93;;
16393;SDS011;8306;51.128;4.476;2023-05-21T06:29:04;4.30;;;4.00;;
16393;SDS011;8306;51.128;4.476;2023-05-21T06:31:30;4.13;;;3.87;;
16393;SDS011;8306;51.128;4.476;2023-05-21T06:33:57;4.10;;;3.80;;
16393;SDS011;8306;51.128;4.476;2023-05-21T06:36:24;4.83;;;4.50;;
16393;SDS011;8306;51.128;4.476;2023-05-21T06:38:50;4.20;;;4.00;;
16393;SDS011;8306;51.128;4.476;2023-05-21T06:41:16;4.37;;;4.00;;
16393;SDS011;8306;51.128;4.476;2023-05-21T06:43:43;3.90;;;3.60;;
16393;SDS011;8306;51.128;4.476;2023-05-21T06:46:09;4.40;;;4.00;;
16393;SDS011;8306;51.128;4.476;2023-05-21T06:48:36;3.93;;;3.73;;
16393;SDS011;8306;51.128;4.476;2023-05-21T06:51:02;4.03;;;3.83;;
16393;SDS011;8306;51.128;4.476;2023-05-21T06:53:29;5.73;;;4.20;;
16393;SDS011;8306;51.128;4.476;2023-05-21T06:55:55;4.67;;;4.30;;
16393;SDS011;8306;51.128;4.476;2023-05-21T06:58:22;4.70;;;4.30;;
16393;SDS011;8306;51.128;4.476;2023-05-21T07:00:48;4.70;;;4.30;;
16393;SDS011;8306;51.128;4.476;2023-05-21T07:03:15;4.67;;;4.20;;
16393;SDS011;8306;51.128;4.476;2023-05-21T07:05:41;3.90;;;3.70;;
16393;SDS011;8306;51.128;4.476;2023-05-21T07:08:08;4.70;;;4.40;;
16393;SDS011;8306;51.128;4.476;2023-05-21T07:10:34;4.90;;;4.50;;
16393;SDS011;8306;51.128;4.476;2023-05-21T07:13:01;4.30;;;4.10;;
16393;SDS011;8306;51.128;4.476;2023-05-21T07:15:27;4.60;;;4.20;;
16393;SDS011;8306;51.128;4.476;2023-05-21T07:17:53;5.20;;;4.13;;
16393;SDS011;8306;51.128;4.476;2023-05-21T07:20:20;4.43;;;4.13;;
16393;SDS011;8306;51.128;4.476;2023-05-21T07:22:46;8.10;;;4.67;;
16393;SDS011;8306;51.128;4.476;2023-05-21T07:25:13;4.73;;;4.20;;
16393;SDS011;8306;51.128;4.476;2023-05-21T07:27:40;4.50;;;4.20;;
16393;SDS011;8306;51.128;4.476;2023-05-21T07:30:06;4.73;;;4.43;;
16393;SDS011;8306;51.128;4.476;2023-05-21T07:32:33;5.53;;;5.07;;
16393;SDS011;8306;51.128;4.476;2023-05-21T07:34:59;5.27;;;4.80;;
16393;SDS011;8306;51.128;4.476;2023-05-21T07:37:28;4.90;;;4.60;;
16393;SDS011;8306;51.128;4.476;2023-05-21T07:39:57;4.83;;;4.43;;
16393;SDS011;8306;51.128;4.476;2023-05-21T07:42:24;5.17;;;4.87;;
16393;SDS011;8306;51.128;4.476;2023-05-21T07:44:50;4.63;;;4.33;;
16393;SDS011;8306;51.128;4.476;2023-05-21T07:47:17;5.53;;;5.13;;
16393;SDS011;8306;51.128;4.476;2023-05-21T07:49:43;5.10;;;4.80;;
16393;SDS011;8306;51.128;4.476;2023-05-21T07:52:10;5.00;;;4.60;;
16393;SDS011;8306;51.128;4.476;2023-05-21T07:54:36;5.47;;;5.10;;
16393;SDS011;8306;51.128;4.476;2023-05-21T07:57:03;5.17;;;4.87;;
16393;SDS011;8306;51.128;4.476;2023-05-21T07:59:29;5.50;;;5.00;;
16393;SDS011;8306;51.128;4.476;2023-05-21T08:01:56;5.00;;;4.63;;
16393;SDS011;8306;51.128;4.476;2023-05-21T08:04:22;5.60;;;5.27;;
16393;SDS011;8306;51.128;4.476;2023-05-21T08:06:49;5.40;;;4.90;;
16393;SDS011;8306;51.128;4.476;2023-05-21T08:09:15;5.60;;;5.20;;
16393;SDS011;8306;51.128;4.476;2023-05-21T08:11:41;4.87;;;4.53;;
16393;SDS011;8306;51.128;4.476;2023-05-21T08:14:08;5.33;;;5.03;;
16393;SDS011;8306;51.128;4.476;2023-05-21T08:16:34;4.87;;;4.57;;
16393;SDS011;8306;51.128;4.476;2023-05-21T08:19:01;5.30;;;4.90;;
16393;SDS011;8306;51.128;4.476;2023-05-21T08:21:27;5.80;;;5.40;;
16393;SDS011;8306;51.128;4.476;2023-05-21T08:23:54;5.23;;;4.80;;
16393;SDS011;8306;51.128;4.476;2023-05-21T08:26:20;5.60;;;5.10;;
16393;SDS011;8306;51.128;4.476;2023-05-21T08:28:47;5.47;;;5.03;;
16393;SDS011;8306;51.128;4.476;2023-05-21T08:31:13;5.00;;;4.70;;
16393;SDS011;8306;51.128;4.476;2023-05-21T08:33:40;5.43;;;5.13;;
16393;SDS011;8306;51.128;4.476;2023-05-21T08:36:06;5.40;;;5.07;;
16393;SDS011;8306;51.128;4.476;2023-05-21T08:38:33;5.57;;;5.20;;
16393;SDS011;8306;51.128;4.476;2023-05-21T08:40:59;5.27;;;4.87;;
16393;SDS011;8306;51.128;4.476;2023-05-21T08:43:26;5.67;;;5.27;;
16393;SDS011;8306;51.128;4.476;2023-05-21T08:45:53;6.13;;;5.17;;
16393;SDS011;8306;51.128;4.476;2023-05-21T08:48:22;5.97;;;5.67;;
16393;SDS011;8306;51.128;4.476;2023-05-21T08:50:51;6.93;;;5.50;;
16393;SDS011;8306;51.128;4.476;2023-05-21T08:53:17;6.10;;;5.80;;
16393;SDS011;8306;51.128;4.476;2023-05-21T08:55:44;6.20;;;5.70;;
16393;SDS011;8306;51.128;4.476;2023-05-21T08:58:10;5.77;;;5.30;;
16393;SDS011;8306;51.128;4.476;2023-05-21T09:00:37;5.97;;;5.57;;
16393;SDS011;8306;51.128;4.476;2023-05-21T09:03:03;5.87;;;5.47;;
16393;SDS011;8306;51.128;4.476;2023-05-21T09:05:30;6.90;;;6.40;;
16393;SDS011;8306;51.128;4.476;2023-05-21T09:08:05;6.27;;;5.67;;
16393;SDS011;8306;51.128;4.476;2023-05-21T09:10:35;5.40;;;5.00;;
16393;SDS011;8306;51.128;4.476;2023-05-21T09:13:01;6.30;;;5.90;;
16393;SDS011;8306;51.128;4.476;2023-05-21T09:15:27;6.47;;;5.97;;
16393;SDS011;8306;51.128;4.476;2023-05-21T09:17:54;7.13;;;6.63;;
16393;SDS011;8306;51.128;4.476;2023-05-21T09:20:23;12.77;;;6.90;;
16393;SDS011;8306;51.128;4.476;2023-05-21T09:22:49;6.40;;;6.00;;
16393;SDS011;8306;51.128;4.476;2023-05-21T09:25:20;6.83;;;6.23;;
16393;SDS011;8306;51.128;4.476;2023-05-21T09:27:42;6.10;;;5.70;;
16393;SDS011;8306;51.128;4.476;2023-05-21T09:30:10;7.23;;;6.70;;
16393;SDS011;8306;51.128;4.476;2023-05-21T09:32:36;6.70;;;6.30;;
16393;SDS011;8306;51.128;4.476;2023-05-21T09:35:08;6.23;;;5.83;;
16393;SDS011;8306;51.128;4.476;2023-05-21T09:37:41;6.87;;;6.30;;
16393;SDS011;8306;51.128;4.476;2023-05-21T09:40:10;6.70;;;6.20;;
16393;SDS011;8306;51.128;4.476;2023-05-21T09:42:38;7.33;;;6.83;;
16393;SDS011;8306;51.128;4.476;2023-05-21T09:45:06;5.27;;;4.97;;
16393;SDS011;8306;51.128;4.476;2023-05-21T09:47:32;7.20;;;6.70;;
16393;SDS011;8306;51.128;4.476;2023-05-21T09:49:59;6.47;;;5.97;;
16393;SDS011;8306;51.128;4.476;2023-05-21T09:52:25;6.77;;;6.37;;
16393;SDS011;8306;51.128;4.476;2023-05-21T09:54:52;7.07;;;6.67;;
16393;SDS011;8306;51.128;4.476;2023-05-21T09:57:24;6.83;;;6.43;;
16393;SDS011;8306;51.128;4.476;2023-05-21T09:59:50;7.33;;;6.70;;
16393;SDS011;8306;51.128;4.476;2023-05-21T10:02:18;6.53;;;6.13;;
16393;SDS011;8306;51.128;4.476;2023-05-21T10:04:46;7.20;;;6.70;;
16393;SDS011;8306;51.128;4.476;2023-05-21T10:07:12;7.10;;;6.60;;
16393;SDS011;8306;51.128;4.476;2023-05-21T10:09:38;6.63;;;6.20;;
16393;SDS011;8306;51.128;4.476;2023-05-21T10:12:05;7.53;;;6.93;;
16393;SDS011;8306;51.128;4.476;2023-05-21T10:14:31;7.10;;;6.57;;
16393;SDS011;8306;51.128;4.476;2023-05-21T10:16:58;7.53;;;7.03;;
16393;SDS011;8306;51.128;4.476;2023-05-21T10:19:24;7.57;;;7.07;;
16393;SDS011;8306;51.128;4.476;2023-05-21T10:21:51;7.97;;;7.47;;
16393;SDS011;8306;51.128;4.476;2023-05-21T10:24:17;7.77;;;7.37;;
16393;SDS011;8306;51.128;4.476;2023-05-21T10:26:44;6.93;;;6.53;;
16393;SDS011;8306;51.128;4.476;2023-05-21T10:29:10;7.47;;;6.77;;
16393;SDS011;8306;51.128;4.476;2023-05-21T10:31:40;6.53;;;6.23;;
16393;SDS011;8306;51.128;4.476;2023-05-21T10:34:03;7.03;;;6.53;;
16393;SDS011;8306;51.128;4.476;2023-05-21T10:36:30;8.10;;;7.60;;
16393;SDS011;8306;51.128;4.476;2023-05-21T10:38:56;7.77;;;7.30;;
16393;SDS011;8306;51.128;4.476;2023-05-21T10:41:23;8.80;;;8.00;;
16393;SDS011;8306;51.128;4.476;2023-05-21T10:43:59;7.67;;;7.13;;
16393;SDS011;8306;51.128;4.476;2023-05-21T10:46:42;8.10;;;7.50;;
16393;SDS011;8306;51.128;4.476;2023-05-21T10:49:16;8.57;;;7.97;;
16393;SDS011;8306;51.128;4.476;2023-05-21T10:52:18;8.30;;;7.77;;
16393;SDS011;8306;51.128;4.476;2023-05-21T10:54:57;8.90;;;8.30;;
16393;SDS011;8306;51.128;4.476;2023-05-21T10:57:42;8.47;;;7.97;;
16393;SDS011;8306;51.128;4.476;2023-05-21T11:00:06;8.87;;;8.27;;
16393;SDS011;8306;51.128;4.476;2023-05-21T11:02:32;8.17;;;7.67;;
16393;SDS011;8306;51.128;4.476;2023-05-21T11:04:59;8.70;;;8.10;;
16393;SDS011;8306;51.128;4.476;2023-05-21T11:10:34;8.70;;;8.17;;
16393;SDS011;8306;51.128;4.476;2023-05-21T11:13:04;8.27;;;7.77;;
16393;SDS011;8306;51.128;4.476;2023-05-21T11:15:30;8.87;;;8.17;;
16393;SDS011;8306;51.128;4.476;2023-05-21T11:17:56;8.57;;;8.07;;
16393;SDS011;8306;51.128;4.476;2023-05-21T11:20:23;9.90;;;9.30;;
16393;SDS011;8306;51.128;4.476;2023-05-21T11:22:49;9.73;;;9.03;;
16393;SDS011;8306;51.128;4.476;2023-05-21T11:25:16;9.67;;;8.97;;
16393;SDS011;8306;51.128;4.476;2023-05-21T11:27:42;10.10;;;9.47;;
16393;SDS011;8306;51.128;4.476;2023-05-21T11:30:15;9.47;;;8.77;;
16393;SDS011;8306;51.128;4.476;2023-05-21T11:38:10;9.57;;;8.97;;
16393;SDS011;8306;51.128;4.476;2023-05-21T11:40:37;9.70;;;9.07;;
16393;SDS011;8306;51.128;4.476;2023-05-21T11:43:03;9.33;;;8.70;;
16393;SDS011;8306;51.128;4.476;2023-05-21T11:45:31;9.47;;;8.87;;
16393;SDS011;8306;51.128;4.476;2023-05-21T11:47:56;9.90;;;9.10;;
16393;SDS011;8306;51.128;4.476;2023-05-21T11:50:23;9.63;;;9.03;;
16393;SDS011;8306;51.128;4.476;2023-05-21T11:52:50;9.60;;;9.00;;
16393;SDS011;8306;51.128;4.476;2023-05-21T11:55:20;9.60;;;8.90;;
16393;SDS011;8306;51.128;4.476;2023-05-21T11:57:51;9.30;;;8.70;;
16393;SDS011;8306;51.128;4.476;2023-05-21T12:00:14;9.40;;;8.70;;
16393;SDS011;8306;51.128;4.476;2023-05-21T12:02:44;9.27;;;8.70;;
16393;SDS011;8306;51.128;4.476;2023-05-21T12:05:10;10.57;;;9.67;;
16393;SDS011;8306;51.128;4.476;2023-05-21T12:07:36;9.97;;;9.27;;
16393;SDS011;8306;51.128;4.476;2023-05-21T12:10:03;10.23;;;9.53;;
16393;SDS011;8306;51.128;4.476;2023-05-21T12:12:29;11.33;;;8.60;;
16393;SDS011;8306;51.128;4.476;2023-05-21T12:14:56;9.47;;;8.77;;
16393;SDS011;8306;51.128;4.476;2023-05-21T12:17:23;9.30;;;8.70;;
16393;SDS011;8306;51.128;4.476;2023-05-21T12:19:55;10.13;;;9.40;;
16393;SDS011;8306;51.128;4.476;2023-05-21T12:22:22;9.23;;;8.63;;
16393;SDS011;8306;51.128;4.476;2023-05-21T12:24:48;9.47;;;8.87;;
16393;SDS011;8306;51.128;4.476;2023-05-21T12:27:14;9.90;;;9.30;;
16393;SDS011;8306;51.128;4.476;2023-05-21T12:29:41;10.20;;;9.27;;
16393;SDS011;8306;51.128;4.476;2023-05-21T12:32:08;9.23;;;8.67;;
16393;SDS011;8306;51.128;4.476;2023-05-21T12:34:44;9.53;;;8.83;;
16393;SDS011;8306;51.128;4.476;2023-05-21T12:37:14;11.03;;;10.23;;
16393;SDS011;8306;51.128;4.476;2023-05-21T12:39:39;8.67;;;8.17;;
16393;SDS011;8306;51.128;4.476;2023-05-21T12:42:03;9.90;;;9.20;;
16393;SDS011;8306;51.128;4.476;2023-05-21T12:44:29;9.33;;;8.73;;
16393;SDS011;8306;51.128;4.476;2023-05-21T12:46:55;8.87;;;8.27;;
16393;SDS011;8306;51.128;4.476;2023-05-21T12:49:35;9.90;;;9.20;;
16393;SDS011;8306;51.128;4.476;2023-05-21T12:52:01;9.13;;;8.53;;
16393;SDS011;8306;51.128;4.476;2023-05-21T12:54:27;9.10;;;8.40;;
16393;SDS011;8306;51.128;4.476;2023-05-21T12:56:53;9.33;;;8.73;;
16393;SDS011;8306;51.128;4.476;2023-05-21T12:59:20;8.20;;;7.70;;
16393;SDS011;8306;51.128;4.476;2023-05-21T13:01:46;10.47;;;8.43;;
16393;SDS011;8306;51.128;4.476;2023-05-21T13:04:13;8.57;;;7.93;;
16393;SDS011;8306;51.128;4.476;2023-05-21T13:06:42;8.70;;;8.10;;
16393;SDS011;8306;51.128;4.476;2023-05-21T13:09:08;9.37;;;8.70;;
16393;SDS011;8306;51.128;4.476;2023-05-21T13:11:35;8.90;;;8.20;;
16393;SDS011;8306;51.128;4.476;2023-05-21T13:14:01;9.13;;;8.50;;
16393;SDS011;8306;51.128;4.476;2023-05-21T13:16:28;8.50;;;7.90;;
16393;SDS011;8306;51.128;4.476;2023-05-21T13:18:54;9.30;;;8.70;;
16393;SDS011;8306;51.128;4.476;2023-05-21T13:21:21;8.87;;;8.27;;
16393;SDS011;8306;51.128;4.476;2023-05-21T13:23:47;9.70;;;8.90;;
16393;SDS011;8306;51.128;4.476;2023-05-21T13:26:14;8.20;;;7.60;;
16393;SDS011;8306;51.128;4.476;2023-05-21T13:28:40;9.60;;;9.00;;
16393;SDS011;8306;51.128;4.476;2023-05-21T13:31:07;9.37;;;8.53;;
16393;SDS011;8306;51.128;4.476;2023-05-21T13:33:33;10.10;;;9.40;;
16393;SDS011;8306;51.128;4.476;2023-05-21T13:35:59;9.13;;;8.53;;
16393;SDS011;8306;51.128;4.476;2023-05-21T13:38:26;9.30;;;8.60;;
16393;SDS011;8306;51.128;4.476;2023-05-21T13:40:52;8.30;;;7.77;;
16393;SDS011;8306;51.128;4.476;2023-05-21T13:43:19;9.00;;;8.40;;
16393;SDS011;8306;51.128;4.476;2023-05-21T13:45:46;9.80;;;9.17;;
16393;SDS011;8306;51.128;4.476;2023-05-21T13:48:12;9.63;;;8.90;;
16393;SDS011;8306;51.128;4.476;2023-05-21T13:50:38;8.70;;;8.00;;
16393;SDS011;8306;51.128;4.476;2023-05-21T13:53:05;9.47;;;8.80;;
16393;SDS011;8306;51.128;4.476;2023-05-21T13:55:31;9.33;;;8.63;;
16393;SDS011;8306;51.128;4.476;2023-05-21T13:57:58;8.70;;;8.07;;
16393;SDS011;8306;51.128;4.476;2023-05-21T14:00:24;9.80;;;9.10;;
16393;SDS011;8306;51.128;4.476;2023-05-21T14:02:51;8.70;;;8.17;;
16393;SDS011;8306;51.128;4.476;2023-05-21T14:05:17;8.93;;;8.33;;
16393;SDS011;8306;51.128;4.476;2023-05-21T14:07:44;9.13;;;8.47;;
16393;SDS011;8306;51.128;4.476;2023-05-21T14:10:10;9.60;;;8.90;;
16393;SDS011;8306;51.128;4.476;2023-05-21T14:12:37;8.77;;;8.17;;
16393;SDS011;8306;51.128;4.476;2023-05-21T14:15:03;9.47;;;8.43;;
16393;SDS011;8306;51.128;4.476;2023-05-21T14:17:30;9.20;;;8.60;;
16393;SDS011;8306;51.128;4.476;2023-05-21T14:19:56;9.63;;;8.93;;
16393;SDS011;8306;51.128;4.476;2023-05-21T14:22:23;9.20;;;8.50;;
16393;SDS011;8306;51.128;4.476;2023-05-21T14:24:49;9.50;;;8.80;;
16393;SDS011;8306;51.128;4.476;2023-05-21T14:27:16;7.83;;;7.33;;
16393;SDS011;8306;51.128;4.476;2023-05-21T14:29:42;9.50;;;8.90;;
16393;SDS011;8306;51.128;4.476;2023-05-21T14:32:08;8.70;;;8.20;;
16393;SDS011;8306;51.128;4.476;2023-05-21T14:34:35;9.30;;;8.67;;
16393;SDS011;8306;51.128;4.476;2023-05-21T14:37:01;9.67;;;9.07;;
16393;SDS011;8306;51.128;4.476;2023-05-21T14:39:28;8.43;;;7.93;;
16393;SDS011;8306;51.128;4.476;2023-05-21T14:41:54;8.80;;;8.23;;
16393;SDS011;8306;51.128;4.476;2023-05-21T14:44:21;8.80;;;8.13;;
16393;SDS011;8306;51.128;4.476;2023-05-21T14:46:47;9.57;;;8.97;;
16393;SDS011;8306;51.128;4.476;2023-05-21T14:49:14;9.83;;;8.30;;
16393;SDS011;8306;51.128;4.476;2023-05-21T14:51:40;9.30;;;8.67;;
16393;SDS011;8306;51.128;4.476;2023-05-21T14:54:07;9.10;;;8.40;;
16393;SDS011;8306;51.128;4.476;2023-05-21T14:56:33;8.67;;;7.97;;
16393;SDS011;8306;51.128;4.476;2023-05-21T14:59:00;9.53;;;8.90;;
16393;SDS011;8306;51.128;4.476;2023-05-21T15:01:26;8.90;;;8.40;;
16393;SDS011;8306;51.128;4.476;2023-05-21T15:03:53;8.00;;;7.50;;
16393;SDS011;8306;51.128;4.476;2023-05-21T15:06:20;8.60;;;8.00;;